sensor_id;sensor_type;location;lat;lon;timestamp;pressure;altitude;pressure_sealevel;temperature;humidity
19736;BME280;32064;49.310;8.646;2023-12-22T00:01:29;99316.69;;;10.90;73.59
19736;BME280;32064;49.310;8.646;2023-12-22T00:03:55;99315.72;;;10.91;73.64
19736;BME280;32064;49.310;8.646;2023-12-22T00:06:20;99317.38;;;10.92;72.90
19736;BME280;32064;49.310;8.646;2023-12-22T00:08:46;99301.03;;;11.08;72.75
19736;BME280;32064;49.310;8.646;2023-12-22T00:11:11;99296.06;;;11.05;72.71
19736;BME280;32064;49.310;8.646;2023-12-22T00:13:37;99309.50;;;11.02;73.14
19736;BME280;32064;49.310;8.646;2023-12-22T00:16:02;99309.50;;;11.02;73.24
19736;BME280;32064;49.310;8.646;2023-12-22T00:18:28;99336.75;;;11.01;73.14
19736;BME280;32064;49.310;8.646;2023-12-22T00:20:53;99314.88;;;11.00;70.94
19736;BME280;32064;49.310;8.646;2023-12-22T00:23:19;99347.44;;;11.09;71.43
19736;BME280;32064;49.310;8.646;2023-12-22T00:25:44;99324.31;;;11.13;72.26
19736;BME280;32064;49.310;8.646;2023-12-22T00:28:09;99322.53;;;11.13;71.88
19736;BME280;32064;49.310;8.646;2023-12-22T00:30:35;99326.25;;;11.20;71.32
19736;BME280;32064;49.310;8.646;2023-12-22T00:33:00;99342.88;;;11.11;71.29
19736;BME280;32064;49.310;8.646;2023-12-22T00:35:26;99329.16;;;11.08;71.95
19736;BME280;32064;49.310;8.646;2023-12-22T00:37:51;99325.44;;;11.10;72.83
19736;BME280;32064;49.310;8.646;2023-12-22T00:40:18;99347.31;;;11.11;71.94
19736;BME280;32064;49.310;8.646;2023-12-22T00:42:43;99344.00;;;11.18;70.33
19736;BME280;32064;49.310;8.646;2023-12-22T00:45:09;99339.03;;;11.15;71.09
19736;BME280;32064;49.310;8.646;2023-12-22T00:47:34;99317.81;;;11.17;70.83
19736;BME280;32064;49.310;8.646;2023-12-22T00:50:01;99313.09;;;11.20;72.01
19736;BME280;32064;49.310;8.646;2023-12-22T00:52:26;99328.59;;;11.23;72.32
19736;BME280;32064;49.310;8.646;2023-12-22T00:54:52;99323.50;;;11.22;71.14
19736;BME280;32064;49.310;8.646;2023-12-22T00:57:17;99312.94;;;11.32;71.02
19736;BME280;32064;49.310;8.646;2023-12-22T00:59:43;99294.94;;;11.27;71.32
19736;BME280;32064;49.310;8.646;2023-12-22T01:02:16;99286.63;;;11.32;71.95
19736;BME280;32064;49.310;8.646;2023-12-22T01:04:42;99286.06;;;11.38;72.37
19736;BME280;32064;49.310;8.646;2023-12-22T01:07:08;99291.88;;;11.41;70.70
19736;BME280;32064;49.310;8.646;2023-12-22T01:09:34;99286.19;;;11.46;72.34
19736;BME280;32064;49.310;8.646;2023-12-22T01:11:59;99310.44;;;11.40;71.35
19736;BME280;32064;49.310;8.646;2023-12-22T01:14:28;99307.41;;;11.25;72.08
19736;BME280;32064;49.310;8.646;2023-12-22T01:16:53;99317.97;;;11.15;73.88
19736;BME280;32064;49.310;8.646;2023-12-22T01:19:19;99315.06;;;11.18;73.49
19736;BME280;32064;49.310;8.646;2023-12-22T01:21:44;99331.38;;;11.22;71.06
19736;BME280;32064;49.310;8.646;2023-12-22T01:24:09;99320.28;;;11.09;73.72
19736;BME280;32064;49.310;8.646;2023-12-22T01:26:35;99337.88;;;11.08;71.68
19736;BME280;32064;49.310;8.646;2023-12-22T01:29:00;99352.28;;;10.94;73.48
19736;BME280;32064;49.310;8.646;2023-12-22T01:31:25;99335.53;;;11.05;71.43
19736;BME280;32064;49.310;8.646;2023-12-22T01:33:51;99342.31;;;11.08;72.83
19736;BME280;32064;49.310;8.646;2023-12-22T01:36:16;99358.56;;;11.13;72.76
19736;BME280;32064;49.310;8.646;2023-12-22T01:38:41;99331.25;;;11.14;72.09
19736;BME280;32064;49.310;8.646;2023-12-22T01:41:07;99325.13;;;11.04;71.89
19736;BME280;32064;49.310;8.646;2023-12-22T01:43:33;99308.22;;;11.06;72.38
19736;BME280;32064;49.310;8.646;2023-12-22T01:45:59;99307.69;;;10.93;73.24
19736;BME280;32064;49.310;8.646;2023-12-22T01:48:26;99317.22;;;11.04;72.93
19736;BME280;32064;49.310;8.646;2023-12-22T01:50:53;99313.94;;;11.01;72.46
19736;BME280;32064;49.310;8.646;2023-12-22T01:53:20;99315.19;;;11.07;71.71
19736;BME280;32064;49.310;8.646;2023-12-22T01:55:50;99315.72;;;11.01;71.20
19736;BME280;32064;49.310;8.646;2023-12-22T01:58:17;99314.19;;;11.08;71.93
19736;BME280;32064;49.310;8.646;2023-12-22T02:00:43;99309.63;;;11.10;70.67
19736;BME280;32064;49.310;8.646;2023-12-22T02:03:08;99305.63;;;11.16;70.65
19736;BME280;32064;49.310;8.646;2023-12-22T02:05:34;99309.63;;;11.20;72.22
19736;BME280;32064;49.310;8.646;2023-12-22T02:08:00;99304.53;;;11.18;71.14
19736;BME280;32064;49.310;8.646;2023-12-22T02:10:25;99304.25;;;11.21;71.55
19736;BME280;32064;49.310;8.646;2023-12-22T02:12:50;99302.16;;;11.25;72.63
19736;BME280;32064;49.310;8.646;2023-12-22T02:15:16;99297.03;;;11.14;70.53
19736;BME280;32064;49.310;8.646;2023-12-22T02:17:48;99297.16;;;11.12;70.92
19736;BME280;32064;49.310;8.646;2023-12-22T02:20:18;99285.78;;;11.12;72.54
19736;BME280;32064;49.310;8.646;2023-12-22T02:22:44;99284.84;;;11.13;70.80
19736;BME280;32064;49.310;8.646;2023-12-22T02:25:09;99293.28;;;10.97;71.43
19736;BME280;32064;49.310;8.646;2023-12-22T02:27:53;99286.22;;;11.07;72.89
19736;BME280;32064;49.310;8.646;2023-12-22T02:30:26;99288.44;;;11.12;71.83
19736;BME280;32064;49.310;8.646;2023-12-22T02:32:59;99289.97;;;11.14;73.32
19736;BME280;32064;49.310;8.646;2023-12-22T02:35:26;99286.22;;;11.27;71.92
19736;BME280;32064;49.310;8.646;2023-12-22T02:37:54;99290.94;;;11.33;71.50
19736;BME280;32064;49.310;8.646;2023-12-22T02:40:22;99296.34;;;11.41;71.05
19736;BME280;32064;49.310;8.646;2023-12-22T02:42:48;99300.47;;;11.43;70.87
19736;BME280;32064;49.310;8.646;2023-12-22T02:45:15;99321.13;;;11.38;72.12
19736;BME280;32064;49.310;8.646;2023-12-22T02:47:41;99315.16;;;11.46;71.97
19736;BME280;32064;49.310;8.646;2023-12-22T02:50:07;99312.81;;;11.43;73.29
19736;BME280;32064;49.310;8.646;2023-12-22T02:52:33;99319.72;;;11.54;71.96
19736;BME280;32064;49.310;8.646;2023-12-22T02:54:58;99323.19;;;11.54;72.12
19736;BME280;32064;49.310;8.646;2023-12-22T02:57:24;99328.44;;;11.54;72.20
19736;BME280;32064;49.310;8.646;2023-12-22T02:59:49;99314.88;;;11.59;72.81
19736;BME280;32064;49.310;8.646;2023-12-22T03:02:14;99313.91;;;11.50;72.49
19736;BME280;32064;49.310;8.646;2023-12-22T03:04:40;99316.81;;;11.66;70.73
19736;BME280;32064;49.310;8.646;2023-12-22T03:07:06;99319.53;;;11.75;70.48
19736;BME280;32064;49.310;8.646;2023-12-22T03:09:31;99325.09;;;11.81;71.92
19736;BME280;32064;49.310;8.646;2023-12-22T03:11:57;99314.00;;;11.78;71.15
19736;BME280;32064;49.310;8.646;2023-12-22T03:14:29;99311.38;;;11.68;71.73
19736;BME280;32064;49.310;8.646;2023-12-22T03:16:55;99315.25;;;11.74;71.77
19736;BME280;32064;49.310;8.646;2023-12-22T03:19:20;99331.88;;;11.74;70.82
19736;BME280;32064;49.310;8.646;2023-12-22T03:21:48;99331.63;;;11.87;70.75
19736;BME280;32064;49.310;8.646;2023-12-22T03:24:13;99326.50;;;11.85;71.60
19736;BME280;32064;49.310;8.646;2023-12-22T03:26:38;99326.63;;;11.84;71.74
19736;BME280;32064;49.310;8.646;2023-12-22T03:29:04;99331.19;;;11.91;69.50
19736;BME280;32064;49.310;8.646;2023-12-22T03:31:30;99329.41;;;11.92;70.03
19736;BME280;32064;49.310;8.646;2023-12-22T03:33:55;99323.03;;;11.95;70.39
19736;BME280;32064;49.310;8.646;2023-12-22T03:36:21;99324.25;;;12.00;70.62
19736;BME280;32064;49.310;8.646;2023-12-22T03:38:46;99329.13;;;11.95;70.30
19736;BME280;32064;49.310;8.646;2023-12-22T03:41:13;99327.41;;;12.04;69.74
19736;BME280;32064;49.310;8.646;2023-12-22T03:43:38;99323.09;;;12.03;69.03
19736;BME280;32064;49.310;8.646;2023-12-22T03:46:04;99323.25;;;12.01;70.16
19736;BME280;32064;49.310;8.646;2023-12-22T03:48:29;99326.16;;;12.08;69.58
19736;BME280;32064;49.310;8.646;2023-12-22T03:50:54;99322.28;;;11.83;69.57
19736;BME280;32064;49.310;8.646;2023-12-22T03:53:20;99315.66;;;11.98;68.80
19736;BME280;32064;49.310;8.646;2023-12-22T03:55:45;99311.63;;;11.94;68.35
19736;BME280;32064;49.310;8.646;2023-12-22T03:58:10;99312.59;;;11.93;68.06
19736;BME280;32064;49.310;8.646;2023-12-22T04:00:36;99318.81;;;12.02;68.78
19736;BME280;32064;49.310;8.646;2023-12-22T04:03:01;99316.06;;;11.84;68.45
19736;BME280;32064;49.310;8.646;2023-12-22T04:05:27;99308.97;;;11.94;68.85
19736;BME280;32064;49.310;8.646;2023-12-22T04:07:52;99314.94;;;11.96;68.48
19736;BME280;32064;49.310;8.646;2023-12-22T04:10:18;99322.44;;;11.91;67.82
19736;BME280;32064;49.310;8.646;2023-12-22T04:12:44;99314.13;;;11.86;68.03
19736;BME280;32064;49.310;8.646;2023-12-22T04:15:09;99319.94;;;11.99;68.58
19736;BME280;32064;49.310;8.646;2023-12-22T04:17:53;99304.66;;;12.03;68.13
19736;BME280;32064;49.310;8.646;2023-12-22T04:20:18;99311.72;;;12.02;67.96
19736;BME280;32064;49.310;8.646;2023-12-22T04:22:44;99317.28;;;11.99;68.53
19736;BME280;32064;49.310;8.646;2023-12-22T04:25:09;99305.81;;;11.81;68.69
19736;BME280;32064;49.310;8.646;2023-12-22T04:27:35;99319.50;;;12.04;67.67
19736;BME280;32064;49.310;8.646;2023-12-22T04:30:00;99328.50;;;12.11;69.33
19736;BME280;32064;49.310;8.646;2023-12-22T04:32:26;99336.63;;;11.90;67.78
19736;BME280;32064;49.310;8.646;2023-12-22T04:34:51;99334.00;;;11.61;68.39
19736;BME280;32064;49.310;8.646;2023-12-22T04:37:17;99329.38;;;11.82;68.68
19736;BME280;32064;49.310;8.646;2023-12-22T04:39:42;99323.44;;;11.90;67.30
19736;BME280;32064;49.310;8.646;2023-12-22T04:42:07;99332.16;;;11.71;69.41
19736;BME280;32064;49.310;8.646;2023-12-22T04:44:33;99347.28;;;11.79;69.39
19736;BME280;32064;49.310;8.646;2023-12-22T04:46:58;99346.03;;;11.93;67.88
19736;BME280;32064;49.310;8.646;2023-12-22T04:49:23;99343.25;;;11.84;67.07
19736;BME280;32064;49.310;8.646;2023-12-22T04:51:49;99356.16;;;11.87;67.10
19736;BME280;32064;49.310;8.646;2023-12-22T04:54:14;99362.94;;;12.00;68.03
19736;BME280;32064;49.310;8.646;2023-12-22T04:56:40;99360.63;;;11.87;67.00
19736;BME280;32064;49.310;8.646;2023-12-22T04:59:05;99365.84;;;11.97;68.00
19736;BME280;32064;49.310;8.646;2023-12-22T05:01:30;99365.84;;;11.97;67.01
19736;BME280;32064;49.310;8.646;2023-12-22T05:03:56;99387.78;;;11.78;68.81
19736;BME280;32064;49.310;8.646;2023-12-22T05:06:21;99384.88;;;11.81;67.37
19736;BME280;32064;49.310;8.646;2023-12-22T05:08:47;99395.25;;;11.82;67.32
19736;BME280;32064;49.310;8.646;2023-12-22T05:11:12;99391.97;;;11.90;68.56
19736;BME280;32064;49.310;8.646;2023-12-22T05:13:37;99402.91;;;11.95;68.76
19736;BME280;32064;49.310;8.646;2023-12-22T05:16:03;99406.09;;;11.99;68.51
19736;BME280;32064;49.310;8.646;2023-12-22T05:18:29;99410.25;;;12.01;70.15
19736;BME280;32064;49.310;8.646;2023-12-22T05:20:55;99413.88;;;12.00;69.59
19736;BME280;32064;49.310;8.646;2023-12-22T05:23:20;99413.44;;;12.05;68.94
19736;BME280;32064;49.310;8.646;2023-12-22T05:25:45;99419.53;;;12.05;69.28
19736;BME280;32064;49.310;8.646;2023-12-22T05:28:11;99405.69;;;11.94;70.89
19736;BME280;32064;49.310;8.646;2023-12-22T05:30:36;99412.63;;;11.95;71.50
19736;BME280;32064;49.310;8.646;2023-12-22T05:33:04;99413.16;;;11.98;71.64
19736;BME280;32064;49.310;8.646;2023-12-22T05:35:29;99407.91;;;11.98;70.85
19736;BME280;32064;49.310;8.646;2023-12-22T05:37:54;99424.94;;;11.84;70.51
19736;BME280;32064;49.310;8.646;2023-12-22T05:40:20;99409.13;;;11.84;71.76
19736;BME280;32064;49.310;8.646;2023-12-22T05:42:45;99399.44;;;11.95;69.67
19736;BME280;32064;49.310;8.646;2023-12-22T05:45:11;99402.09;;;11.95;71.27
19736;BME280;32064;49.310;8.646;2023-12-22T05:47:37;99411.06;;;11.82;71.06
19736;BME280;32064;49.310;8.646;2023-12-22T05:50:03;99409.97;;;11.85;70.69
19736;BME280;32064;49.310;8.646;2023-12-22T05:52:29;99412.22;;;11.89;70.09
19736;BME280;32064;49.310;8.646;2023-12-22T05:54:54;99415.38;;;11.83;70.38
19736;BME280;32064;49.310;8.646;2023-12-22T05:57:19;99425.34;;;11.80;69.91
19736;BME280;32064;49.310;8.646;2023-12-22T05:59:45;99432.44;;;11.79;70.19
19736;BME280;32064;49.310;8.646;2023-12-22T06:02:10;99419.41;;;11.87;69.83
19736;BME280;32064;49.310;8.646;2023-12-22T06:04:36;99405.69;;;11.94;68.99
19736;BME280;32064;49.310;8.646;2023-12-22T06:07:01;99417.19;;;11.93;69.58
19736;BME280;32064;49.310;8.646;2023-12-22T06:09:27;99417.16;;;11.83;69.33
19736;BME280;32064;49.310;8.646;2023-12-22T06:11:52;99412.75;;;11.83;69.28
19736;BME280;32064;49.310;8.646;2023-12-22T06:14:18;99414.13;;;11.97;69.57
19736;BME280;32064;49.310;8.646;2023-12-22T06:16:43;99420.09;;;11.99;68.80
19736;BME280;32064;49.310;8.646;2023-12-22T06:19:08;99441.06;;;12.01;68.58
19736;BME280;32064;49.310;8.646;2023-12-22T06:21:37;99426.78;;;12.03;68.14
19736;BME280;32064;49.310;8.646;2023-12-22T06:24:03;99436.47;;;12.03;69.61
19736;BME280;32064;49.310;8.646;2023-12-22T06:26:28;99441.84;;;12.11;67.88
19736;BME280;32064;49.310;8.646;2023-12-22T06:28:54;99453.94;;;11.94;69.52
19736;BME280;32064;49.310;8.646;2023-12-22T06:31:20;99452.03;;;12.06;68.94
19736;BME280;32064;49.310;8.646;2023-12-22T06:33:47;99458.91;;;12.17;67.58
19736;BME280;32064;49.310;8.646;2023-12-22T06:36:23;99454.66;;;12.06;68.17
19736;BME280;32064;49.310;8.646;2023-12-22T06:38:50;99457.69;;;12.01;68.21
19736;BME280;32064;49.310;8.646;2023-12-22T06:41:23;99452.97;;;12.05;69.04
19736;BME280;32064;49.310;8.646;2023-12-22T06:43:49;99444.91;;;12.16;66.96
19736;BME280;32064;49.310;8.646;2023-12-22T06:46:17;99456.56;;;12.13;66.54
19736;BME280;32064;49.310;8.646;2023-12-22T06:48:43;99463.66;;;12.13;67.51
19736;BME280;32064;49.310;8.646;2023-12-22T06:51:20;99458.38;;;12.13;66.93
19736;BME280;32064;49.310;8.646;2023-12-22T06:53:49;99475.47;;;12.09;68.03
19736;BME280;32064;49.310;8.646;2023-12-22T06:56:21;99483.59;;;12.25;67.05
19736;BME280;32064;49.310;8.646;2023-12-22T06:58:48;99482.78;;;12.25;66.92
19736;BME280;32064;49.310;8.646;2023-12-22T07:01:21;99493.19;;;12.17;66.46
19736;BME280;32064;49.310;8.646;2023-12-22T07:03:47;99500.13;;;12.27;66.48
19736;BME280;32064;49.310;8.646;2023-12-22T07:06:14;99493.59;;;12.22;66.60
19736;BME280;32064;49.310;8.646;2023-12-22T07:08:40;99497.22;;;12.21;64.95
19736;BME280;32064;49.310;8.646;2023-12-22T07:11:05;99500.53;;;12.23;65.36
19736;BME280;32064;49.310;8.646;2023-12-22T07:13:32;99501.66;;;12.30;65.17
19736;BME280;32064;49.310;8.646;2023-12-22T07:15:57;99510.97;;;12.24;65.42
19736;BME280;32064;49.310;8.646;2023-12-22T07:18:23;99521.38;;;12.26;64.57
19736;BME280;32064;49.310;8.646;2023-12-22T07:20:50;99515.41;;;12.24;63.91
19736;BME280;32064;49.310;8.646;2023-12-22T07:23:15;99515.25;;;12.35;65.89
19736;BME280;32064;49.310;8.646;2023-12-22T07:25:41;99519.97;;;12.41;64.74
19736;BME280;32064;49.310;8.646;2023-12-22T07:28:06;99513.03;;;12.40;65.07
19736;BME280;32064;49.310;8.646;2023-12-22T07:30:32;99514.00;;;12.39;64.74
19736;BME280;32064;49.310;8.646;2023-12-22T07:32:57;99520.38;;;12.36;63.79
19736;BME280;32064;49.310;8.646;2023-12-22T07:35:22;99530.78;;;12.28;65.11
19736;BME280;32064;49.310;8.646;2023-12-22T07:37:48;99527.34;;;12.18;64.04
19736;BME280;32064;49.310;8.646;2023-12-22T07:40:13;99534.66;;;12.34;65.30
19736;BME280;32064;49.310;8.646;2023-12-22T07:42:38;99538.44;;;12.31;65.45
19736;BME280;32064;49.310;8.646;2023-12-22T07:45:05;99533.72;;;12.35;65.40
19736;BME280;32064;49.310;8.646;2023-12-22T07:47:32;99538.59;;;12.20;64.41
19736;BME280;32064;49.310;8.646;2023-12-22T07:49:57;99560.38;;;12.32;64.80
19736;BME280;32064;49.310;8.646;2023-12-22T07:52:23;99569.25;;;12.31;64.24
19736;BME280;32064;49.310;8.646;2023-12-22T07:54:48;99573.69;;;12.30;66.52
19736;BME280;32064;49.310;8.646;2023-12-22T07:57:13;99576.34;;;12.40;66.51
19736;BME280;32064;49.310;8.646;2023-12-22T07:59:39;99579.94;;;12.39;66.55
19736;BME280;32064;49.310;8.646;2023-12-22T08:02:04;99575.91;;;12.25;67.54
19736;BME280;32064;49.310;8.646;2023-12-22T08:04:30;99581.75;;;12.29;66.30
19736;BME280;32064;49.310;8.646;2023-12-22T08:06:55;99580.91;;;12.38;66.12
19736;BME280;32064;49.310;8.646;2023-12-22T08:09:21;99572.31;;;12.36;67.68
19736;BME280;32064;49.310;8.646;2023-12-22T08:11:48;99574.38;;;12.32;68.50
19736;BME280;32064;49.310;8.646;2023-12-22T08:14:17;99572.16;;;12.28;68.57
19736;BME280;32064;49.310;8.646;2023-12-22T08:16:43;99562.72;;;12.35;67.74
19736;BME280;32064;49.310;8.646;2023-12-22T08:19:09;99563.69;;;12.44;67.49
19736;BME280;32064;49.310;8.646;2023-12-22T08:21:35;99565.38;;;12.35;67.22
19736;BME280;32064;49.310;8.646;2023-12-22T08:24:00;99563.69;;;12.34;68.06
19736;BME280;32064;49.310;8.646;2023-12-22T08:26:26;99555.78;;;12.44;66.79
19736;BME280;32064;49.310;8.646;2023-12-22T08:28:51;99549.53;;;12.45;67.10
19736;BME280;32064;49.310;8.646;2023-12-22T08:31:19;99549.53;;;12.45;68.40
19736;BME280;32064;49.310;8.646;2023-12-22T08:33:44;99554.97;;;12.43;69.18
19736;BME280;32064;49.310;8.646;2023-12-22T08:36:10;99543.56;;;12.43;67.93
19736;BME280;32064;49.310;8.646;2023-12-22T08:38:37;99564.13;;;12.49;69.10
19736;BME280;32064;49.310;8.646;2023-12-22T08:41:06;99571.88;;;12.50;68.50
19736;BME280;32064;49.310;8.646;2023-12-22T08:43:32;99576.59;;;12.27;69.34
19736;BME280;32064;49.310;8.646;2023-12-22T08:45:58;99579.66;;;12.52;68.48
19736;BME280;32064;49.310;8.646;2023-12-22T08:48:23;99577.16;;;12.50;69.32
19736;BME280;32064;49.310;8.646;2023-12-22T08:50:48;99580.34;;;12.54;69.67
19736;BME280;32064;49.310;8.646;2023-12-22T08:53:15;99581.19;;;12.45;68.38
19736;BME280;32064;49.310;8.646;2023-12-22T08:55:40;99574.50;;;12.31;69.65
19736;BME280;32064;49.310;8.646;2023-12-22T08:58:06;99578.25;;;12.48;69.04
19736;BME280;32064;49.310;8.646;2023-12-22T09:00:31;99567.31;;;12.33;68.28
19736;BME280;32064;49.310;8.646;2023-12-22T09:02:56;99554.69;;;12.27;68.88
19736;BME280;32064;49.310;8.646;2023-12-22T09:05:22;99551.50;;;12.43;70.07
19736;BME280;32064;49.310;8.646;2023-12-22T09:07:47;99557.31;;;12.46;68.57
19736;BME280;32064;49.310;8.646;2023-12-22T09:10:13;99556.03;;;12.50;69.19
19736;BME280;32064;49.310;8.646;2023-12-22T09:12:38;99556.31;;;12.47;69.29
19736;BME280;32064;49.310;8.646;2023-12-22T09:15:03;99562.44;;;12.57;68.40
19736;BME280;32064;49.310;8.646;2023-12-22T09:17:29;99568.25;;;12.61;68.72
19736;BME280;32064;49.310;8.646;2023-12-22T09:19:54;99565.47;;;12.72;68.21
19736;BME280;32064;49.310;8.646;2023-12-22T09:22:20;99564.09;;;12.68;67.98
19736;BME280;32064;49.310;8.646;2023-12-22T09:24:47;99565.59;;;12.71;67.61
19736;BME280;32064;49.310;8.646;2023-12-22T09:27:12;99579.47;;;12.73;68.78
19736;BME280;32064;49.310;8.646;2023-12-22T09:29:38;99568.22;;;12.71;67.25
19736;BME280;32064;49.310;8.646;2023-12-22T09:32:03;99574.47;;;12.79;67.41
19736;BME280;32064;49.310;8.646;2023-12-22T09:34:29;99577.53;;;12.75;66.72
19736;BME280;32064;49.310;8.646;2023-12-22T09:36:54;99581.56;;;12.69;67.82
19736;BME280;32064;49.310;8.646;2023-12-22T09:39:20;99569.75;;;12.73;67.47
19736;BME280;32064;49.310;8.646;2023-12-22T09:41:48;99581.41;;;12.80;66.83
19736;BME280;32064;49.310;8.646;2023-12-22T09:44:18;99584.88;;;12.81;68.29
19736;BME280;32064;49.310;8.646;2023-12-22T09:46:44;99584.19;;;12.79;67.28
19736;BME280;32064;49.310;8.646;2023-12-22T09:49:10;99580.47;;;12.72;66.19
19736;BME280;32064;49.310;8.646;2023-12-22T09:51:36;99574.44;;;12.89;66.35
19736;BME280;32064;49.310;8.646;2023-12-22T09:54:03;99570.69;;;12.82;67.22
19736;BME280;32064;49.310;8.646;2023-12-22T09:56:29;99564.91;;;12.69;67.45
19736;BME280;32064;49.310;8.646;2023-12-22T09:58:56;99552.22;;;12.82;67.20
19736;BME280;32064;49.310;8.646;2023-12-22T10:01:22;99549.22;;;12.77;66.51
19736;BME280;32064;49.310;8.646;2023-12-22T10:03:49;99552.09;;;12.84;67.79
19736;BME280;32064;49.310;8.646;2023-12-22T10:06:15;99558.06;;;12.86;66.69
19736;BME280;32064;49.310;8.646;2023-12-22T10:08:43;99559.06;;;12.75;67.34
19736;BME280;32064;49.310;8.646;2023-12-22T10:11:10;99551.38;;;12.91;66.21
19736;BME280;32064;49.310;8.646;2023-12-22T10:13:36;99552.03;;;13.03;65.30
19736;BME280;32064;49.310;8.646;2023-12-22T10:16:06;99557.91;;;12.97;65.30
19736;BME280;32064;49.310;8.646;2023-12-22T10:18:32;99555.38;;;13.05;65.55
19736;BME280;32064;49.310;8.646;2023-12-22T10:20:58;99554.44;;;12.87;65.99
19736;BME280;32064;49.310;8.646;2023-12-22T10:23:23;99549.13;;;12.96;66.00
19736;BME280;32064;49.310;8.646;2023-12-22T10:25:50;99550.09;;;12.95;66.20
19736;BME280;32064;49.310;8.646;2023-12-22T10:28:16;99545.06;;;13.02;65.61
19736;BME280;32064;49.310;8.646;2023-12-22T10:30:44;99550.09;;;13.05;65.58
19736;BME280;32064;49.310;8.646;2023-12-22T10:33:11;99543.13;;;13.04;65.75
19736;BME280;32064;49.310;8.646;2023-12-22T10:35:36;99542.31;;;13.03;65.44
19736;BME280;32064;49.310;8.646;2023-12-22T10:38:03;99536.91;;;12.95;65.73
19736;BME280;32064;49.310;8.646;2023-12-22T10:40:29;99532.84;;;13.11;66.73
19736;BME280;32064;49.310;8.646;2023-12-22T10:42:55;99528.50;;;13.10;65.66
19736;BME280;32064;49.310;8.646;2023-12-22T10:45:20;99521.91;;;12.96;66.53
19736;BME280;32064;49.310;8.646;2023-12-22T10:47:48;99518.81;;;13.00;65.54
19736;BME280;32064;49.310;8.646;2023-12-22T10:50:15;99513.69;;;12.99;65.48
19736;BME280;32064;49.310;8.646;2023-12-22T10:52:49;99509.78;;;13.03;65.49
19736;BME280;32064;49.310;8.646;2023-12-22T10:55:15;99516.69;;;13.14;66.79
19736;BME280;32064;49.310;8.646;2023-12-22T10:57:41;99506.06;;;12.96;66.47
19736;BME280;32064;49.310;8.646;2023-12-22T11:00:07;99511.78;;;12.91;66.65
19736;BME280;32064;49.310;8.646;2023-12-22T11:02:34;99507.00;;;13.04;66.91
19736;BME280;32064;49.310;8.646;2023-12-22T11:05:05;99508.63;;;13.15;66.72
19736;BME280;32064;49.310;8.646;2023-12-22T11:07:32;99493.75;;;13.14;65.67
19736;BME280;32064;49.310;8.646;2023-12-22T11:10:03;99494.47;;;13.07;66.90
19736;BME280;32064;49.310;8.646;2023-12-22T11:12:31;99487.38;;;13.07;66.37
19736;BME280;32064;49.310;8.646;2023-12-22T11:14:58;99473.00;;;12.92;67.84
19736;BME280;32064;49.310;8.646;2023-12-22T11:17:23;99465.22;;;12.90;68.12
19736;BME280;32064;49.310;8.646;2023-12-22T11:19:49;99458.09;;;13.00;66.86
19736;BME280;32064;49.310;8.646;2023-12-22T11:22:17;99459.66;;;12.93;68.13
19736;BME280;32064;49.310;8.646;2023-12-22T11:24:46;99449.44;;;12.80;68.34
19736;BME280;32064;49.310;8.646;2023-12-22T11:27:12;99441.72;;;12.97;68.83
19736;BME280;32064;49.310;8.646;2023-12-22T11:29:39;99440.31;;;13.02;68.61
19736;BME280;32064;49.310;8.646;2023-12-22T11:32:06;99447.44;;;12.92;69.32
19736;BME280;32064;49.310;8.646;2023-12-22T11:34:33;99441.03;;;12.95;70.00
19736;BME280;32064;49.310;8.646;2023-12-22T11:37:03;99429.09;;;12.91;70.82
19736;BME280;32064;49.310;8.646;2023-12-22T11:39:29;99422.25;;;12.98;69.73
19736;BME280;32064;49.310;8.646;2023-12-22T11:41:55;99414.72;;;13.03;70.01
19736;BME280;32064;49.310;8.646;2023-12-22T11:44:22;99404.75;;;12.69;71.77
19736;BME280;32064;49.310;8.646;2023-12-22T11:46:47;99399.22;;;12.90;70.83
19736;BME280;32064;49.310;8.646;2023-12-22T11:49:13;99395.56;;;12.73;72.13
19736;BME280;32064;49.310;8.646;2023-12-22T11:51:38;99397.66;;;12.79;70.71
19736;BME280;32064;49.310;8.646;2023-12-22T11:59:58;99385.31;;;12.70;71.79
19736;BME280;32064;49.310;8.646;2023-12-22T12:02:26;99379.44;;;12.76;71.03
19736;BME280;32064;49.310;8.646;2023-12-22T12:04:52;99386.72;;;12.65;72.73
19736;BME280;32064;49.310;8.646;2023-12-22T12:10:01;99367.00;;;12.69;72.09
19736;BME280;32064;49.310;8.646;2023-12-22T12:12:27;99365.50;;;12.84;71.42
19736;BME280;32064;49.310;8.646;2023-12-22T12:14:57;99358.72;;;12.81;72.40
19736;BME280;32064;49.310;8.646;2023-12-22T12:17:23;99359.53;;;12.82;72.44
19736;BME280;32064;49.310;8.646;2023-12-22T12:19:49;99359.34;;;12.93;72.02
19736;BME280;32064;49.310;8.646;2023-12-22T12:22:14;99360.31;;;12.92;71.99
19736;BME280;32064;49.310;8.646;2023-12-22T12:24:41;99349.84;;;12.83;72.81
19736;BME280;32064;49.310;8.646;2023-12-22T12:27:07;99349.66;;;12.84;72.79
19736;BME280;32064;49.310;8.646;2023-12-22T12:29:33;99349.25;;;12.89;72.08
19736;BME280;32064;49.310;8.646;2023-12-22T12:32:05;99350.13;;;12.79;72.74
19736;BME280;32064;49.310;8.646;2023-12-22T12:34:31;99338.25;;;12.66;74.40
19736;BME280;32064;49.310;8.646;2023-12-22T12:36:56;99350.38;;;12.86;73.37
19736;BME280;32064;49.310;8.646;2023-12-22T12:39:22;99337.56;;;12.64;74.94
19736;BME280;32064;49.310;8.646;2023-12-22T12:41:53;99321.88;;;12.62;74.16
19736;BME280;32064;49.310;8.646;2023-12-22T12:44:20;99326.84;;;12.65;74.98
19736;BME280;32064;49.310;8.646;2023-12-22T12:46:47;99328.75;;;12.73;73.23
19736;BME280;32064;49.310;8.646;2023-12-22T12:49:13;99324.91;;;12.67;74.76
19736;BME280;32064;49.310;8.646;2023-12-22T12:51:44;99322.31;;;12.85;73.15
19736;BME280;32064;49.310;8.646;2023-12-22T12:54:10;99321.63;;;12.83;74.32
19736;BME280;32064;49.310;8.646;2023-12-22T12:56:40;99334.09;;;12.63;76.41
19736;BME280;32064;49.310;8.646;2023-12-22T12:59:13;99333.09;;;12.74;74.46
19736;BME280;32064;49.310;8.646;2023-12-22T13:01:40;99332.91;;;12.75;74.64
19736;BME280;32064;49.310;8.646;2023-12-22T13:04:05;99335.03;;;12.72;75.15